Time;durP1;ratioP1;P1;durP2;ratioP2;P2;SDS_P1;SDS_P2;PMS_P1;PMS_P2;Temp;Humidity;BMP_temperature;BMP_pressure;BME280_temperature;BME280_humidity;BME280_pressure;Samples;Min_cycle;Max_cycle;Signal;HPM_P1;HPM_P2
2022/04/20 00:00:08;;;;;;;7.80;5.47;;;7.10;99.90;;;;;;5078201;28;20281;-62
2022/04/20 00:03:01;;;;;;;7.27;5.63;;;7.10;99.90;;;;;;5063921;28;20242;-63
2022/04/20 00:05:49;;;;;;;6.53;5.23;;;7.20;99.90;;;;;;5080362;28;20298;-63
2022/04/20 00:08:38;;;;;;;7.27;6.00;;;7.20;99.90;;;;;;5076479;28;20746;-63
2022/04/20 00:11:30;;;;;;;6.70;5.20;;;7.20;99.90;;;;;;5071350;28;20227;-63
2022/04/20 00:14:22;;;;;;;7.40;5.50;;;7.20;99.90;;;;;;5074165;28;20229;-62
2022/04/20 00:17:16;;;;;;;7.67;5.70;;;7.20;99.90;;;;;;5076911;28;20212;-63
2022/04/20 00:20:06;;;;;;;8.33;6.23;;;7.00;99.90;;;;;;5074742;28;20220;-63
2022/04/20 00:22:54;;;;;;;9.17;5.50;;;7.10;99.90;;;;;;5051816;28;20215;-62
2022/04/20 00:25:43;;;;;;;6.27;5.53;;;7.20;99.90;;;;;;5076201;28;20920;-63
2022/04/20 00:28:35;;;;;;;7.47;5.30;;;7.30;99.90;;;;;;5066016;28;20223;-63
2022/04/20 00:31:24;;;;;;;7.90;5.53;;;7.30;99.90;;;;;;5060510;28;20215;-63
2022/04/20 00:34:14;;;;;;;9.30;5.50;;;7.20;99.90;;;;;;5066499;28;21064;-63
2022/04/20 00:37:03;;;;;;;7.93;5.70;;;7.20;99.90;;;;;;5058953;28;20215;-63
2022/04/20 00:39:52;;;;;;;6.83;5.20;;;7.10;99.90;;;;;;5078115;28;20219;-62
2022/04/20 00:42:42;;;;;;;8.13;6.00;;;7.20;99.90;;;;;;5060402;28;20225;-62
2022/04/20 00:45:32;;;;;;;7.00;5.77;;;7.30;99.90;;;;;;5075357;28;20227;-63
2022/04/20 00:48:22;;;;;;;7.13;6.00;;;7.20;99.90;;;;;;5064643;28;20230;-63
2022/04/20 00:51:13;;;;;;;8.10;5.93;;;7.10;99.90;;;;;;5062244;28;20222;-63
2022/04/20 00:54:02;;;;;;;9.73;6.83;;;7.10;99.90;;;;;;5069388;28;20882;-63
2022/04/20 00:56:51;;;;;;;9.93;6.50;;;7.10;99.90;;;;;;5061904;28;20353;-64
2022/04/20 00:59:40;;;;;;;8.53;6.10;;;7.10;99.90;;;;;;5061247;28;20225;-63
2022/04/20 01:02:31;;;;;;;8.67;6.50;;;7.10;99.90;;;;;;5056283;28;20223;-63
2022/04/20 01:05:21;;;;;;;8.37;6.60;;;7.20;99.90;;;;;;5071046;28;20640;-64
2022/04/20 01:08:30;;;;;;;8.27;6.53;;;7.20;99.90;;;;;;5079869;28;20557;-63
2022/04/20 01:11:39;;;;;;;8.77;6.80;;;7.20;99.90;;;;;;5078572;28;20336;-63
2022/04/20 01:14:48;;;;;;;7.33;6.20;;;7.30;99.90;;;;;;5077665;28;20224;-63
2022/04/20 01:18:00;;;;;;;9.97;7.43;;;7.20;99.90;;;;;;5037896;28;20220;-64
2022/04/20 01:21:17;;;;;;;7.80;6.93;;;7.10;99.90;;;;;;5075569;28;20346;-61
2022/04/20 01:24:32;;;;;;;8.27;7.33;;;7.20;99.90;;;;;;5066596;28;20220;-62
2022/04/20 01:27:40;;;;;;;11.77;9.17;;;7.30;99.90;;;;;;5079317;28;20223;-61
2022/04/20 01:30:36;;;;;;;12.33;7.57;;;7.30;99.90;;;;;;5080221;28;20314;-62
2022/04/20 01:33:37;;;;;;;10.10;7.93;;;7.10;99.90;;;;;;5079500;28;20293;-62
2022/04/20 01:36:27;;;;;;;10.50;7.77;;;7.10;99.90;;;;;;5075757;28;20845;-62
2022/04/20 01:39:16;;;;;;;10.27;7.80;;;7.20;99.90;;;;;;5083879;28;20230;-62
2022/04/20 01:42:07;;;;;;;8.80;7.33;;;7.10;99.90;;;;;;5062129;28;20227;-63
2022/04/20 01:45:01;;;;;;;11.27;7.77;;;7.20;99.90;;;;;;5061539;28;20217;-63
2022/04/20 01:48:07;;;;;;;12.07;7.77;;;7.20;99.90;;;;;;5082239;28;20894;-63
2022/04/20 01:54:36;;;;;;;10.13;8.17;;;7.00;99.90;;;;;;5077318;28;20267;-62
2022/04/20 01:57:41;;;;;;;10.37;8.30;;;7.10;99.90;;;;;;5061869;28;20220;-62
2022/04/20 02:00:53;;;;;;;12.13;8.20;;;7.10;99.90;;;;;;5069559;28;20844;-63
2022/04/20 02:03:56;;;;;;;13.87;8.13;;;7.20;99.90;;;;;;5065306;28;20207;-61
2022/04/20 02:06:45;;;;;;;11.07;8.07;;;7.30;99.90;;;;;;5070811;28;20333;-63
2022/04/20 02:09:43;;;;;;;10.73;8.03;;;7.10;99.90;;;;;;5061589;28;20272;-63
2022/04/20 02:12:36;;;;;;;11.00;8.03;;;7.10;99.90;;;;;;5073125;28;20328;-64
2022/04/20 02:15:28;;;;;;;11.07;8.97;;;7.30;99.90;;;;;;5078408;28;20219;-62
2022/04/20 02:18:22;;;;;;;11.47;8.50;;;7.30;99.90;;;;;;5081292;28;20704;-62
2022/04/20 02:21:21;;;;;;;11.47;8.77;;;7.20;99.90;;;;;;5062154;28;20297;-67
2022/04/20 02:24:10;;;;;;;11.83;8.40;;;7.10;99.90;;;;;;5064049;28;20300;-62
2022/04/20 02:27:00;;;;;;;13.30;8.70;;;7.20;99.90;;;;;;5060411;28;20230;-64
2022/04/20 02:29:48;;;;;;;10.43;9.33;;;7.20;99.90;;;;;;5092231;27;20298;-63
2022/04/20 02:32:37;;;;;;;14.57;10.20;;;7.20;99.90;;;;;;5068549;28;20892;-62
2022/04/20 02:35:30;;;;;;;12.37;9.27;;;7.20;99.90;;;;;;5067995;28;20224;-63
2022/04/20 02:38:20;;;;;;;11.77;9.53;;;7.20;99.90;;;;;;5058773;28;20224;-66
2022/04/20 02:41:09;;;;;;;12.20;9.70;;;7.10;99.90;;;;;;5072589;27;20987;-62
2022/04/20 02:43:59;;;;;;;12.57;9.20;;;7.10;99.90;;;;;;5096794;27;20215;-63
2022/04/20 02:46:48;;;;;;;13.57;10.07;;;7.00;99.90;;;;;;5084762;27;20246;-62
2022/04/20 02:49:37;;;;;;;11.37;10.17;;;6.90;99.90;;;;;;5088158;27;20724;-63
2022/04/20 02:52:26;;;;;;;13.50;10.80;;;7.00;99.90;;;;;;5079560;27;20230;-63
2022/04/20 02:55:16;;;;;;;15.37;10.50;;;6.90;99.90;;;;;;5075107;27;20227;-62
2022/04/20 02:58:07;;;;;;;14.37;11.10;;;6.80;99.90;;;;;;5095034;27;20244;-63
2022/04/20 03:01:06;;;;;;;13.87;11.20;;;6.70;99.90;;;;;;5079072;27;20275;-62
2022/04/20 03:04:02;;;;;;;13.00;10.87;;;6.70;99.90;;;;;;5083060;27;20696;-63
2022/04/20 03:06:53;;;;;;;12.53;11.17;;;6.80;99.90;;;;;;5078888;27;20215;-65
2022/04/20 03:09:58;;;;;;;12.37;10.83;;;6.70;99.90;;;;;;5079464;27;20216;-65
2022/04/20 03:12:55;;;;;;;12.73;10.47;;;6.70;99.90;;;;;;5079284;27;20289;-64
2022/04/20 03:15:44;;;;;;;13.73;11.10;;;6.60;99.90;;;;;;5085141;27;20592;-64
2022/04/20 03:18:34;;;;;;;13.50;11.23;;;6.70;99.90;;;;;;5078452;27;20477;-64
2022/04/20 03:21:31;;;;;;;12.03;10.73;;;6.80;99.90;;;;;;5084131;27;20209;-64
2022/04/20 03:24:23;;;;;;;12.27;10.30;;;6.70;99.90;;;;;;5087643;27;20708;-63
2022/04/20 03:27:37;;;;;;;12.93;9.93;;;6.90;99.90;;;;;;5083039;27;20226;-65
2022/04/20 03:30:27;;;;;;;13.83;11.07;;;6.70;99.90;;;;;;5078865;27;20287;-63
2022/04/20 03:33:21;;;;;;;12.17;10.87;;;6.70;99.90;;;;;;5094966;27;20231;-64
2022/04/20 03:36:11;;;;;;;12.03;10.60;;;6.70;99.90;;;;;;5080355;27;20216;-63
2022/04/20 03:39:00;;;;;;;12.50;11.20;;;6.70;99.90;;;;;;5091085;27;20223;-64
2022/04/20 03:41:49;;;;;;;14.20;11.47;;;6.80;99.90;;;;;;5093968;27;20313;-63
2022/04/20 03:44:39;;;;;;;12.60;9.67;;;6.70;99.90;;;;;;5100394;27;20226;-63
2022/04/20 03:47:28;;;;;;;12.00;10.70;;;6.80;99.90;;;;;;5098059;27;20219;-63
2022/04/20 03:50:19;;;;;;;11.40;9.90;;;6.80;99.90;;;;;;5099973;27;20330;-63
2022/04/20 03:53:09;;;;;;;12.87;10.80;;;6.80;99.90;;;;;;5094987;27;20222;-64
2022/04/20 03:55:58;;;;;;;13.00;10.70;;;6.70;99.90;;;;;;5080099;27;20212;-64
2022/04/20 03:58:47;;;;;;;14.07;11.60;;;6.70;99.90;;;;;;5082445;27;20303;-64
2022/04/20 04:01:36;;;;;;;13.80;11.30;;;6.60;99.90;;;;;;5069933;28;20230;-62
2022/04/20 04:04:29;;;;;;;11.63;10.43;;;6.70;99.90;;;;;;5081965;27;20226;-63
2022/04/20 04:07:21;;;;;;;12.10;10.57;;;6.80;99.90;;;;;;5087911;27;20216;-64
2022/04/20 04:10:11;;;;;;;11.30;10.07;;;6.70;99.90;;;;;;5080354;27;20220;-63
2022/04/20 04:13:00;;;;;;;11.60;10.40;;;6.80;99.90;;;;;;5096051;27;20364;-64
2022/04/20 04:15:49;;;;;;;12.13;9.60;;;6.80;99.90;;;;;;5081484;28;20215;-63
2022/04/20 04:18:38;;;;;;;10.33;9.23;;;6.80;99.90;;;;;;5080968;27;20250;-65
2022/04/20 04:21:31;;;;;;;12.00;9.67;;;6.80;99.90;;;;;;5084628;27;20350;-63
2022/04/20 04:24:39;;;;;;;9.53;8.20;;;7.00;99.90;;;;;;5082355;27;20220;-64
2022/04/20 04:27:33;;;;;;;10.30;9.20;;;6.80;99.90;;;;;;5086604;27;20227;-64
2022/04/20 04:30:22;;;;;;;11.77;9.67;;;6.90;99.90;;;;;;5081486;28;20228;-67
2022/04/20 04:33:20;;;;;;;12.93;10.27;;;7.00;99.90;;;;;;5084005;27;20690;-65
2022/04/20 04:36:09;;;;;;;9.20;8.20;;;6.90;99.90;;;;;;5080477;28;20219;-64
2022/04/20 04:39:03;;;;;;;9.77;7.83;;;7.00;99.90;;;;;;5084522;27;20219;-65
2022/04/20 04:41:56;;;;;;;9.60;8.70;;;7.00;99.90;;;;;;5083595;28;20224;-65
2022/04/20 04:44:50;;;;;;;9.87;8.40;;;7.10;99.90;;;;;;5085986;28;20294;-62
2022/04/20 04:51:02;;;;;;;11.27;9.30;;;7.00;99.90;;;;;;5018026;28;20324;-62
2022/04/20 04:53:52;;;;;;;8.93;7.93;;;7.10;99.90;;;;;;5034237;28;20228;-63
2022/04/20 04:56:50;;;;;;;10.90;8.60;;;7.10;99.90;;;;;;5078115;28;20225;-63
2022/04/20 04:59:39;;;;;;;9.33;8.27;;;7.10;99.90;;;;;;5085286;28;20333;-63
2022/04/20 05:02:32;;;;;;;10.73;8.63;;;7.10;99.90;;;;;;5074767;28;20231;-63
2022/04/20 05:05:21;;;;;;;10.80;8.33;;;7.20;99.90;;;;;;5098738;27;20771;-63
2022/04/20 05:08:10;;;;;;;8.57;7.70;;;7.20;99.90;;;;;;5086726;28;20971;-63
2022/04/20 05:10:59;;;;;;;10.23;9.07;;;7.10;99.90;;;;;;5079688;28;20751;-63
2022/04/20 05:13:49;;;;;;;11.07;8.60;;;7.20;99.90;;;;;;5085907;28;20652;-65
2022/04/20 05:16:38;;;;;;;8.87;7.90;;;7.20;99.90;;;;;;5099920;27;20215;-64
2022/04/20 05:19:30;;;;;;;8.67;7.60;;;7.20;99.90;;;;;;5084231;28;20224;-64
2022/04/20 05:22:26;;;;;;;10.47;7.57;;;7.00;99.90;;;;;;5085718;28;20217;-62
2022/04/20 05:25:20;;;;;;;9.43;7.50;;;7.20;99.90;;;;;;5082705;28;20244;-63
2022/04/20 05:28:09;;;;;;;9.73;7.63;;;7.10;99.90;;;;;;5087053;28;20223;-63
2022/04/20 05:30:58;;;;;;;9.90;7.53;;;7.00;99.90;;;;;;5082633;28;20232;-63
2022/04/20 05:33:47;;;;;;;10.27;8.00;;;7.10;99.90;;;;;;5101034;28;20222;-64
2022/04/20 05:42:52;;;;;;;11.90;8.27;;;7.10;99.90;;;;;;5076191;28;20352;-64
2022/04/20 05:45:41;;;;;;;9.13;7.87;;;7.30;99.90;;;;;;5080842;28;20318;-63
2022/04/20 05:48:41;;;;;;;9.50;8.00;;;7.20;99.90;;;;;;5086221;27;20537;-64
2022/04/20 05:51:34;;;;;;;12.30;8.80;;;7.20;99.90;;;;;;5087052;27;20216;-62
2022/04/20 05:54:25;;;;;;;10.13;8.87;;;7.30;99.90;;;;;;5093780;27;20223;-63
2022/04/20 05:57:14;;;;;;;13.47;9.90;;;7.20;99.90;;;;;;5089711;27;20519;-63
2022/04/20 06:00:08;;;;;;;12.27;9.57;;;7.30;99.90;;;;;;5089376;27;20858;-64
2022/04/20 06:03:03;;;;;;;11.83;8.80;;;7.40;99.90;;;;;;5101764;27;20275;-64
2022/04/20 06:05:53;;;;;;;9.37;8.20;;;7.20;99.90;;;;;;5099731;27;20231;-63
2022/04/20 06:08:48;;;;;;;11.37;8.77;;;7.30;99.90;;;;;;5085324;28;20231;-62
2022/04/20 06:11:57;;;;;;;10.03;7.37;;;7.30;99.90;;;;;;5101742;27;20605;-64
2022/04/20 06:14:55;;;;;;;11.63;8.30;;;7.10;99.90;;;;;;5084927;27;20217;-63
2022/04/20 06:18:00;;;;;;;10.53;7.63;;;7.30;99.90;;;;;;5082405;27;20235;-62
2022/04/20 06:20:49;;;;;;;8.67;6.93;;;7.30;99.90;;;;;;5078412;27;20226;-63
2022/04/20 06:23:51;;;;;;;12.50;7.07;;;7.30;99.90;;;;;;5087773;27;20232;-64
2022/04/20 06:26:48;;;;;;;11.73;7.80;;;7.40;99.90;;;;;;5083838;27;20304;-63
2022/04/20 06:29:57;;;;;;;7.27;6.00;;;7.50;99.90;;;;;;5105846;27;20218;-64
2022/04/20 06:32:55;;;;;;;9.97;6.47;;;7.40;99.90;;;;;;5089957;27;20210;-64
2022/04/20 06:36:04;;;;;;;6.07;5.40;;;7.30;99.90;;;;;;5076996;27;20674;-66
2022/04/20 06:39:02;;;;;;;9.00;6.03;;;7.40;99.90;;;;;;5074090;27;20373;-67
2022/04/20 06:42:04;;;;;;;8.67;5.93;;;7.30;99.90;;;;;;5078715;27;20253;-66
2022/04/20 06:45:25;;;;;;;7.73;5.00;;;7.30;99.90;;;;;;5088407;27;20256;-65
2022/04/20 06:48:34;;;;;;;7.53;5.30;;;7.30;99.90;;;;;;5098973;27;20347;-62
2022/04/20 07:01:18;;;;;;;6.90;4.77;;;7.60;99.90;;;;;;5083459;27;20912;-64
2022/04/20 07:04:20;;;;;;;7.20;5.70;;;7.60;99.90;;;;;;5097650;27;20222;-63
2022/04/20 07:07:30;;;;;;;8.77;5.80;;;7.70;99.90;;;;;;5090017;27;20220;-63
2022/04/20 07:10:53;;;;;;;8.23;5.93;;;7.60;99.90;;;;;;5092593;27;20223;-62
2022/04/20 07:13:42;;;;;;;9.57;6.30;;;7.80;99.90;;;;;;5088831;27;20226;-63
2022/04/20 07:16:32;;;;;;;10.13;7.00;;;7.70;99.90;;;;;;5093628;27;20214;-63
2022/04/20 07:19:43;;;;;;;11.03;7.57;;;7.90;99.90;;;;;;5087914;27;20224;-63
2022/04/20 07:23:00;;;;;;;14.53;8.40;;;7.80;99.90;;;;;;5103804;27;20654;-63
2022/04/20 07:25:56;;;;;;;7.97;6.80;;;8.00;99.90;;;;;;5090858;27;20218;-63
2022/04/20 07:29:17;;;;;;;9.57;6.30;;;8.10;99.90;;;;;;5077106;27;20298;-63
2022/04/20 07:32:47;;;;;;;6.17;5.50;;;8.00;99.90;;;;;;5083054;28;20252;-63
2022/04/20 07:35:58;;;;;;;8.70;5.53;;;7.80;99.90;;;;;;5083088;28;20222;-64
2022/04/20 07:39:08;;;;;;;26.20;18.40;;;8.20;99.90;;;;;;5087216;28;20213;-64
2022/04/20 07:42:15;;;;;;;5.13;3.40;;;8.20;99.90;;;;;;5100586;27;20271;-63
2022/04/20 07:45:33;;;;;;;5.27;4.07;;;7.90;99.90;;;;;;5084458;27;20248;-64
2022/04/20 07:48:42;;;;;;;4.57;3.70;;;8.00;99.90;;;;;;5102169;27;20221;-63
2022/04/20 07:51:49;;;;;;;4.80;3.60;;;7.90;99.90;;;;;;5101833;27;20229;-64
2022/04/20 07:55:16;;;;;;;5.70;4.50;;;7.80;99.90;;;;;;5088828;27;20223;-63
2022/04/20 07:58:17;;;;;;;6.63;4.83;;;8.00;99.90;;;;;;5086837;27;20404;-62
2022/04/20 08:01:19;;;;;;;10.00;5.53;;;8.10;99.90;;;;;;5086153;27;20245;-65
2022/04/20 08:04:16;;;;;;;8.40;5.20;;;8.10;99.90;;;;;;5106596;27;20336;-65
2022/04/20 08:07:28;;;;;;;9.07;5.87;;;8.20;99.90;;;;;;5106485;27;20249;-64
2022/04/20 08:10:16;;;;;;;7.73;5.47;;;8.20;99.90;;;;;;5090870;28;20225;-64
2022/04/20 08:16:10;;;;;;;5.93;5.20;;;8.00;99.90;;;;;;5086972;27;20502;-64
2022/04/20 08:19:23;;;;;;;7.20;5.63;;;8.10;99.90;;;;;;5104540;27;20430;-63
2022/04/20 08:22:28;;;;;;;6.67;5.83;;;8.00;99.90;;;;;;5090264;27;20222;-62
2022/04/20 08:25:17;;;;;;;6.33;5.07;;;8.10;99.90;;;;;;5086248;27;20229;-62
2022/04/20 08:28:06;;;;;;;5.23;4.50;;;8.10;99.90;;;;;;5084916;28;20228;-63
2022/04/20 08:30:55;;;;;;;6.10;4.30;;;8.20;99.90;;;;;;5091262;27;20229;-64
2022/04/20 08:33:43;;;;;;;10.93;5.33;;;8.40;99.90;;;;;;5106953;27;20897;-65
2022/04/20 08:36:33;;;;;;;6.17;5.00;;;8.60;99.90;;;;;;5084548;27;20220;-64
2022/04/20 08:39:22;;;;;;;8.33;6.50;;;8.70;99.90;;;;;;5104545;27;20222;-64
2022/04/20 08:42:12;;;;;;;9.60;7.27;;;8.80;99.90;;;;;;5061497;28;20349;-62
2022/04/20 08:45:02;;;;;;;7.53;6.20;;;9.00;99.90;;;;;;5074273;28;20285;-64
2022/04/20 08:47:51;;;;;;;7.37;6.60;;;9.10;99.90;;;;;;5077930;28;20305;-64
2022/04/20 08:50:41;;;;;;;7.97;6.47;;;9.10;99.90;;;;;;5065924;28;20265;-64
2022/04/20 08:53:31;;;;;;;8.67;7.07;;;8.90;99.90;;;;;;5077615;28;20253;-63
2022/04/20 08:59:27;;;;;;;6.37;5.60;;;8.60;99.90;;;;;;5078732;28;20230;-63
2022/04/20 09:02:16;;;;;;;8.87;7.17;;;8.70;99.90;;;;;;5078041;28;20234;-62
2022/04/20 09:05:06;;;;;;;8.33;7.20;;;8.80;99.90;;;;;;5075665;28;20294;-60
2022/04/20 09:07:56;;;;;;;10.40;7.20;;;8.80;99.90;;;;;;5079606;28;20225;-63
2022/04/20 09:10:47;;;;;;;10.77;7.10;;;8.80;99.90;;;;;;5066278;28;20221;-61
2022/04/20 09:13:39;;;;;;;9.27;7.50;;;8.80;99.90;;;;;;5063385;28;20275;-62
2022/04/20 09:16:32;;;;;;;8.83;7.10;;;8.90;99.90;;;;;;5073579;28;20747;-62
2022/04/20 09:19:24;;;;;;;10.33;7.37;;;8.90;99.90;;;;;;5081421;28;20861;-61
2022/04/20 09:22:21;;;;;;;8.83;7.00;;;8.70;99.90;;;;;;5085761;28;21159;-62
2022/04/20 09:25:11;;;;;;;8.07;6.90;;;8.90;99.90;;;;;;5079149;28;20227;-63
2022/04/20 09:28:01;;;;;;;8.87;7.40;;;9.00;99.90;;;;;;5083986;28;20727;-62
2022/04/20 09:30:52;;;;;;;10.53;6.83;;;8.90;99.90;;;;;;5069816;28;20365;-62
2022/04/20 09:33:43;;;;;;;9.03;7.10;;;9.00;99.90;;;;;;5072511;28;20758;-62
2022/04/20 09:36:42;;;;;;;10.00;6.53;;;8.90;99.90;;;;;;5083352;28;20218;-60
2022/04/20 09:39:32;;;;;;;9.87;7.27;;;9.00;99.90;;;;;;5076883;28;20226;-62
2022/04/20 09:42:22;;;;;;;9.83;7.63;;;9.00;99.90;;;;;;5102083;27;20288;-62
2022/04/20 09:45:12;;;;;;;11.23;7.23;;;9.10;99.90;;;;;;5108630;27;20222;-63
2022/04/20 09:51:21;;;;;;;9.87;7.73;;;9.10;99.90;;;;;;5100722;27;20226;-62
2022/04/20 09:54:29;;;;;;;9.43;7.23;;;9.10;99.90;;;;;;5100843;27;20230;-62
2022/04/20 09:57:18;;;;;;;8.43;7.43;;;9.10;99.90;;;;;;5105894;27;20301;-64
2022/04/20 10:00:12;;;;;;;8.43;6.93;;;9.10;99.90;;;;;;5092095;27;20546;-62
2022/04/20 10:03:10;;;;;;;8.87;6.47;;;9.10;99.90;;;;;;5080090;27;20221;-63
2022/04/20 10:06:00;;;;;;;7.60;6.80;;;9.10;99.90;;;;;;5102989;27;20215;-61
2022/04/20 10:08:49;;;;;;;8.63;6.90;;;9.10;99.90;;;;;;5091131;27;20316;-62
2022/04/20 10:11:39;;;;;;;11.67;7.70;;;9.10;99.90;;;;;;5101938;27;20282;-62
2022/04/20 10:17:44;;;;;;;9.13;7.40;;;9.30;99.90;;;;;;5097359;27;20227;-63
2022/04/20 10:20:36;;;;;;;9.87;7.97;;;9.30;99.90;;;;;;5098289;27;20237;-62
2022/04/20 10:23:25;;;;;;;10.60;7.60;;;9.30;99.90;;;;;;5096782;27;20251;-61
2022/04/20 10:26:16;;;;;;;14.90;8.80;;;9.30;99.90;;;;;;5082783;27;20222;-62
2022/04/20 10:29:15;;;;;;;10.00;8.40;;;9.40;99.90;;;;;;5092857;27;20229;-62
2022/04/20 10:32:10;;;;;;;10.05;7.95;;;9.30;99.90;;;;;;5096721;22;20323;-78
2022/04/20 10:35:04;;;;;;;14.57;9.47;;;9.40;99.90;;;;;;5063530;28;20211;-85
2022/04/20 10:38:16;;;;;;;12.20;7.90;;;9.50;99.90;;;;;;5036879;28;20284;-71
2022/04/20 10:41:25;;;;;;;8.13;7.17;;;9.50;99.90;;;;;;5065291;28;20661;-71
2022/04/20 10:44:14;;;;;;;11.50;8.83;;;9.40;99.90;;;;;;5071694;28;20237;-72
2022/04/20 10:47:05;;;;;;;9.37;7.30;;;9.50;99.90;;;;;;5059995;28;20231;-72
2022/04/20 10:50:10;;;;;;;11.87;8.27;;;9.50;99.90;;;;;;5058965;28;20281;-71
2022/04/20 10:53:03;;;;;;;9.03;7.90;;;9.30;99.90;;;;;;5074418;28;20227;-73
2022/04/20 10:55:55;;;;;;;12.23;8.80;;;9.30;99.90;;;;;;5058659;28;20333;-72
2022/04/20 10:58:53;;;;;;;12.43;9.02;;;9.20;99.90;;;;;;5079909;28;20234;-72
2022/04/20 11:02:06;;;;;;;10.27;9.10;;;9.30;99.90;;;;;;5074730;28;21140;-71
2022/04/20 11:05:14;;;;;;;17.20;9.55;;;9.30;99.90;;;;;;5053490;28;20227;-72
2022/04/20 11:08:07;;;;;;;12.00;10.10;;;9.40;99.90;;;;;;5076442;28;20227;-71
2022/04/20 11:21:19;;;;;;;16.27;12.83;;;9.70;99.90;;;;;;5059673;28;20223;-73
2022/04/20 11:24:11;;;;;;;16.00;13.47;;;9.80;99.90;;;;;;5075377;28;20223;-72
2022/04/20 11:27:02;;;;;;;14.10;11.80;;;9.80;99.90;;;;;;5074086;28;20310;-72
2022/04/20 11:29:50;;;;;;;17.45;13.00;;;9.80;99.90;;;;;;5075182;28;20284;-71
2022/04/20 11:32:39;;;;;;;16.53;12.67;;;9.50;99.90;;;;;;5060152;28;20226;-72
2022/04/20 11:35:34;;;;;;;15.50;12.50;;;9.50;99.90;;;;;;5059758;28;20258;-72
2022/04/20 11:38:36;;;;;;;14.83;13.23;;;9.40;99.90;;;;;;5077300;28;20219;-72
2022/04/20 11:41:25;;;;;;;17.17;14.10;;;9.40;99.90;;;;;;5073942;28;20226;-72
2022/04/20 11:44:39;;;;;;;18.80;13.35;;;9.40;99.90;;;;;;5060105;28;20245;-73
2022/04/20 11:47:39;;;;;;;17.73;14.30;;;9.50;99.90;;;;;;5058536;28;20321;-73
2022/04/20 11:50:34;;;;;;;15.45;13.85;;;9.50;99.90;;;;;;5057493;28;20224;-72
2022/04/20 11:53:23;;;;;;;16.50;12.57;;;9.50;99.90;;;;;;5076035;28;20677;-73
2022/04/20 11:56:32;;;;;;;14.77;13.07;;;9.50;99.90;;;;;;5062779;28;20313;-73
2022/04/20 11:59:24;;;;;;;15.73;13.00;;;9.60;99.90;;;;;;5063407;28;20640;-72
2022/04/20 12:02:16;;;;;;;21.93;16.33;;;9.60;99.90;;;;;;5081274;28;20582;-73
2022/04/20 12:05:07;;;;;;;14.77;12.38;;;9.60;99.90;;;;;;5076989;28;20226;-73
2022/04/20 12:07:56;;;;;;;14.95;12.88;;;9.80;99.90;;;;;;5078939;28;20226;-72
2022/04/20 12:10:44;;;;;;;12.95;11.52;;;9.80;99.90;;;;;;5062398;28;20310;-73
2022/04/20 12:13:33;;;;;;;12.88;11.13;;;9.70;99.90;;;;;;5075572;28;20318;-74
2022/04/20 12:16:23;;;;;;;14.50;11.87;;;9.70;99.90;;;;;;5062340;28;20313;-73
2022/04/20 12:19:13;;;;;;;15.75;11.25;;;9.80;99.90;;;;;;5059598;28;20220;-73
2022/04/20 12:22:08;;;;;;;12.18;10.88;;;9.90;99.90;;;;;;5063895;28;20226;-72
2022/04/20 12:25:08;;;;;;;15.27;11.33;;;9.90;99.90;;;;;;5064287;28;20293;-72
2022/04/20 12:27:57;;;;;;;13.35;11.55;;;9.80;99.90;;;;;;5064793;28;20367;-73
2022/04/20 12:30:47;;;;;;;14.90;11.98;;;9.80;99.90;;;;;;5076920;28;20220;-73
2022/04/20 12:33:38;;;;;;;14.88;11.70;;;9.80;99.90;;;;;;5065089;28;20229;-74
2022/04/20 12:36:53;;;;;;;15.68;12.18;;;9.80;99.90;;;;;;5051340;28;20757;-72
2022/04/20 12:39:45;;;;;;;13.90;11.57;;;9.70;99.90;;;;;;5070547;28;20715;-72
2022/04/20 12:42:34;;;;;;;15.73;10.95;;;9.80;99.90;;;;;;5074779;28;20215;-74
2022/04/20 12:45:26;;;;;;;14.10;11.18;;;9.80;99.90;;;;;;5059113;28;20242;-75
2022/04/20 12:48:14;;;;;;;17.42;11.00;;;9.90;99.90;;;;;;5068071;28;20245;-74
2022/04/20 12:51:03;;;;;;;17.88;12.05;;;9.90;99.90;;;;;;5073858;28;20226;-75
2022/04/20 12:53:55;;;;;;;13.40;11.60;;;9.90;99.90;;;;;;5061593;28;20222;-74
2022/04/20 13:03:16;;;;;;;18.07;12.27;;;9.80;99.90;;;;;;5075981;28;20238;-74
2022/04/20 13:06:10;;;;;;;20.10;12.13;;;9.80;99.90;;;;;;5048886;28;20471;-76
2022/04/20 13:09:01;;;;;;;12.75;10.23;;;9.80;99.90;;;;;;5074824;28;20380;-75
2022/04/20 13:11:49;;;;;;;16.27;10.98;;;9.80;99.90;;;;;;5043821;28;20392;-74
2022/04/20 13:14:39;;;;;;;14.57;11.17;;;9.80;99.90;;;;;;5075822;28;21230;-75
2022/04/20 13:17:28;;;;;;;15.00;10.93;;;9.80;99.90;;;;;;5075997;28;20224;-76
2022/04/20 13:20:17;;;;;;;16.38;11.40;;;9.90;99.90;;;;;;5074842;28;20342;-77
2022/04/20 13:23:06;;;;;;;14.45;11.90;;;9.90;99.90;;;;;;5078814;28;20224;-74
2022/04/20 13:29:02;;;;;;;15.73;11.63;;;9.70;99.90;;;;;;5076466;28;20718;-75
2022/04/20 13:31:52;;;;;;;19.67;12.40;;;9.80;99.90;;;;;;5079549;28;20266;-73
2022/04/20 13:34:40;;;;;;;15.97;12.13;;;9.90;99.90;;;;;;5064068;28;20309;-74
2022/04/20 13:37:29;;;;;;;14.00;11.37;;;9.80;99.90;;;;;;5078735;28;20227;-73
2022/04/20 13:40:20;;;;;;;18.95;12.35;;;9.70;99.90;;;;;;5077621;28;20254;-73
2022/04/20 13:43:11;;;;;;;14.83;12.13;;;9.80;99.90;;;;;;5076438;28;20235;-74
2022/04/20 13:46:00;;;;;;;15.23;11.23;;;9.80;99.90;;;;;;5079848;28;20946;-74
2022/04/20 13:48:49;;;;;;;15.43;12.40;;;9.80;99.90;;;;;;5078405;28;20233;-73
2022/04/20 13:51:38;;;;;;;19.63;12.33;;;9.70;99.90;;;;;;5066090;28;20215;-74
2022/04/20 13:54:27;;;;;;;14.40;11.73;;;9.70;99.90;;;;;;5078251;28;20313;-74
2022/04/20 13:57:15;;;;;;;15.18;11.98;;;9.80;99.90;;;;;;5077403;28;20720;-74
2022/04/20 14:00:09;;;;;;;14.73;11.68;;;9.80;99.90;;;;;;5074942;28;20229;-74
2022/04/20 14:03:08;;;;;;;14.77;12.13;;;9.80;99.90;;;;;;5065738;28;21990;-82
2022/04/20 14:05:59;;;;;;;16.75;11.73;;;9.80;99.90;;;;;;5063127;28;20764;-75
2022/04/20 14:08:47;;;;;;;16.67;12.23;;;9.70;99.90;;;;;;5076480;28;20250;-75
2022/04/20 14:11:36;;;;;;;15.45;11.98;;;9.70;99.90;;;;;;5062714;28;20236;-75
2022/04/20 14:14:25;;;;;;;15.40;11.90;;;9.80;99.90;;;;;;5083364;28;20226;-76
2022/04/20 14:17:15;;;;;;;19.02;12.95;;;9.90;99.90;;;;;;5063592;28;20222;-76
2022/04/20 14:20:05;;;;;;;18.58;13.68;;;9.80;99.90;;;;;;5079298;28;20215;-77
2022/04/20 14:22:54;;;;;;;17.13;13.05;;;9.90;99.90;;;;;;5083014;28;20227;-76
2022/04/20 14:32:13;;;;;;;16.77;12.15;;;9.60;99.90;;;;;;5082259;28;20219;-77
2022/04/20 14:35:04;;;;;;;17.07;12.63;;;9.60;99.90;;;;;;5078811;28;20226;-76
2022/04/20 14:37:53;;;;;;;15.60;12.85;;;9.60;99.90;;;;;;5081868;28;20222;-76
2022/04/20 14:40:41;;;;;;;15.40;12.30;;;9.70;99.90;;;;;;5080656;28;20684;-77
2022/04/20 14:43:30;;;;;;;17.90;12.70;;;9.80;99.90;;;;;;5072398;28;20571;-77
2022/04/20 14:46:19;;;;;;;18.40;13.37;;;9.80;99.90;;;;;;5067117;28;20233;-76
2022/04/20 14:49:08;;;;;;;18.33;12.40;;;9.90;99.90;;;;;;5079530;28;20265;-76
2022/04/20 14:51:58;;;;;;;17.35;11.88;;;10.00;99.90;;;;;;5078098;28;20657;-77
2022/04/20 14:54:47;;;;;;;17.45;12.10;;;10.00;99.90;;;;;;5081190;28;20306;-75
2022/04/20 14:57:56;;;;;;;15.85;12.57;;;10.00;99.90;;;;;;5076994;28;20220;-77
2022/04/20 15:00:45;;;;;;;19.63;12.13;;;10.00;99.90;;;;;;5080565;28;20531;-77
2022/04/20 15:03:35;;;;;;;18.27;11.75;;;9.90;99.90;;;;;;5065999;28;20218;-77
2022/04/20 15:06:24;;;;;;;15.40;12.02;;;9.80;99.90;;;;;;5080590;28;20223;-76
2022/04/20 15:09:14;;;;;;;19.27;12.13;;;9.90;99.90;;;;;;5078337;28;20692;-76
2022/04/20 15:12:08;;;;;;;15.67;12.10;;;9.90;99.90;;;;;;5078538;28;20225;-76
2022/04/20 15:14:58;;;;;;;14.13;10.85;;;9.90;99.90;;;;;;5074625;28;20223;-77
2022/04/20 15:17:48;;;;;;;16.95;12.15;;;9.90;99.90;;;;;;5080732;28;20226;-79
2022/04/20 15:20:37;;;;;;;15.60;11.57;;;9.80;99.90;;;;;;5065845;28;20238;-79
2022/04/20 15:23:27;;;;;;;19.20;11.85;;;9.90;99.90;;;;;;5081472;28;20839;-79
2022/04/20 15:26:18;;;;;;;16.98;11.52;;;9.90;99.90;;;;;;5068336;28;20291;-77
2022/04/20 15:29:09;;;;;;;18.15;11.70;;;9.90;99.90;;;;;;5082323;28;20253;-78
2022/04/20 15:31:57;;;;;;;15.20;11.95;;;10.00;99.90;;;;;;5064520;28;20223;-78
2022/04/20 15:34:46;;;;;;;17.50;11.55;;;10.10;99.90;;;;;;5068900;28;20230;-79
2022/04/20 15:37:35;;;;;;;14.55;11.32;;;10.10;99.90;;;;;;5071930;28;20731;-79
2022/04/20 15:40:24;;;;;;;14.75;10.88;;;10.00;99.90;;;;;;5082640;28;20247;-79
2022/04/20 15:43:17;;;;;;;13.32;11.30;;;10.00;99.90;;;;;;5064710;28;20235;-78
2022/04/20 15:46:06;;;;;;;14.25;11.02;;;10.00;99.90;;;;;;5066556;28;20223;-80
2022/04/20 15:48:56;;;;;;;18.30;12.32;;;10.00;99.90;;;;;;5067666;28;20215;-80
2022/04/20 15:51:45;;;;;;;18.67;12.80;;;10.00;99.90;;;;;;5082442;28;20881;-78
2022/04/20 15:54:38;;;;;;;18.38;13.93;;;9.90;99.90;;;;;;5082469;28;20231;-79
2022/04/20 16:00:35;;;;;;;19.35;14.02;;;9.90;99.90;;;;;;5068885;28;20935;-78
2022/04/20 16:03:24;;;;;;;18.27;14.07;;;9.90;99.90;;;;;;5083762;28;20253;-78
2022/04/20 16:06:12;;;;;;;20.48;15.40;;;9.80;99.90;;;;;;5076007;28;20238;-78
2022/04/20 16:09:01;;;;;;;22.15;14.55;;;9.70;99.90;;;;;;5082104;28;20246;-78